createdAt,value
2022-10-11T00:02:20.692Z,101126.19
2022-10-11T00:05:23.600Z,101144.88
2022-10-11T00:08:26.209Z,101126.56
2022-10-11T00:11:28.600Z,101144.63
2022-10-11T00:14:31.029Z,101126.38
2022-10-11T00:17:33.642Z,101119.16
2022-10-11T00:20:36.073Z,101112.50
2022-10-11T00:23:38.995Z,101118.25
2022-10-11T00:26:46.383Z,101125.19
2022-10-11T00:29:49.417Z,101099.66
2022-10-11T00:32:51.864Z,101110.59
2022-10-11T00:35:54.340Z,101119.66
2022-10-11T00:38:56.730Z,101118.06
2022-10-11T00:41:59.146Z,101101.53
2022-10-11T00:45:26.330Z,101120.09
2022-10-11T00:48:41.061Z,101094.47
2022-10-11T00:51:47.543Z,101112.16
2022-10-11T00:54:50.269Z,101111.69
2022-10-11T00:57:52.993Z,101107.09
2022-10-11T01:00:55.477Z,101104.88
2022-10-11T01:03:58.314Z,101105.00
2022-10-11T01:07:01.927Z,101091.28
2022-10-11T01:10:04.651Z,101101.13
2022-10-11T01:13:20.757Z,101110.69
2022-10-11T01:16:32.162Z,101085.72
2022-10-11T01:20:08.350Z,101105.59
2022-10-11T01:23:32.547Z,101104.06
2022-10-11T01:26:43.686Z,101099.97
2022-10-11T01:30:05.820Z,101104.06
2022-10-11T01:33:27.828Z,101082.28
2022-10-11T01:36:59.449Z,101098.44
2022-10-11T01:40:17.712Z,101083.06
2022-10-11T01:43:20.887Z,101080.13
2022-10-11T01:46:23.930Z,101085.78
2022-10-11T01:49:26.311Z,101088.44
2022-10-11T01:52:31.618Z,101100.66
2022-10-11T01:55:48.872Z,101090.72
2022-10-11T01:59:26.039Z,101106.09
2022-10-11T02:02:36.984Z,101113.56
2022-10-11T02:05:49.203Z,101081.53
2022-10-11T02:09:08.955Z,101102.94
2022-10-11T02:12:12.970Z,101100.28
2022-10-11T02:15:16.821Z,101098.59
2022-10-11T02:18:23.057Z,101097.25
2022-10-11T02:21:25.909Z,101091.16
2022-10-11T02:24:31.381Z,101087.38
2022-10-11T02:27:36.381Z,101096.09
2022-10-11T02:30:41.101Z,101071.59
2022-10-11T02:34:05.090Z,101099.56
2022-10-11T02:37:16.739Z,101081.59
2022-10-11T02:40:25.916Z,101102.13
2022-10-11T02:43:28.206Z,101101.44
2022-10-11T02:46:30.953Z,101084.69
2022-10-11T02:49:35.783Z,101103.09
2022-10-11T02:52:38.176Z,101087.13
2022-10-11T02:55:40.644Z,101087.25
2022-10-11T02:58:43.000Z,101104.94
2022-10-11T03:01:45.518Z,101086.66
2022-10-11T03:04:47.935Z,101112.72
2022-10-11T03:07:50.339Z,101112.03
2022-10-11T03:10:52.968Z,101115.69
2022-10-11T03:13:55.368Z,101115.41
2022-10-11T03:17:12.089Z,101096.69
2022-10-11T03:20:20.350Z,101095.19
2022-10-11T03:23:22.665Z,101089.72
2022-10-11T03:26:25.211Z,101091.31
2022-10-11T03:29:27.549Z,101084.75
2022-10-11T03:32:29.900Z,101103.81
2022-10-11T03:35:32.269Z,101096.22
2022-10-11T03:38:34.610Z,101078.72
2022-10-11T03:41:36.908Z,101103.75
2022-10-11T03:44:39.414Z,101095.44
2022-10-11T03:47:42.117Z,101102.91
2022-10-11T03:50:44.567Z,101095.13
2022-10-11T03:53:46.880Z,101085.66
2022-10-11T03:56:49.252Z,101102.06
2022-10-11T03:59:51.708Z,101080.75
2022-10-11T04:02:54.424Z,101091.59
2022-10-11T04:05:56.747Z,101103.94
2022-10-11T04:08:59.354Z,101108.31
2022-10-11T04:12:01.725Z,101094.78
2022-10-11T04:15:05.710Z,101103.00
2022-10-11T04:18:08.527Z,101101.00
2022-10-11T04:21:11.061Z,101112.09
2022-10-11T04:24:13.404Z,101106.19
2022-10-11T04:27:15.770Z,101092.88
2022-10-11T04:30:18.331Z,101118.69
2022-10-11T04:33:20.826Z,101113.34
2022-10-11T04:36:24.103Z,101107.66
2022-10-11T04:39:26.896Z,101118.69
2022-10-11T04:42:29.262Z,101124.84
2022-10-11T04:45:32.150Z,101103.22
2022-10-11T04:48:34.918Z,101112.41
2022-10-11T04:51:37.341Z,101120.50
2022-10-11T04:54:39.772Z,101105.56
2022-10-11T04:57:42.583Z,101100.00
2022-10-11T05:00:44.984Z,101116.75
2022-10-11T05:03:48.612Z,101107.94
2022-10-11T05:06:51.232Z,101111.09
2022-10-11T05:09:54.636Z,101123.97
2022-10-11T05:12:57.209Z,101119.88
2022-10-11T05:15:59.808Z,101139.69
2022-10-11T05:19:02.304Z,101125.22
2022-10-11T05:22:04.736Z,101120.44
2022-10-11T05:25:07.385Z,101129.03
2022-10-11T05:28:09.776Z,101124.38
2022-10-11T05:31:12.279Z,101139.44
2022-10-11T05:34:14.680Z,101113.19
2022-10-11T05:37:17.141Z,101145.34
2022-10-11T05:40:20.124Z,101150.16
2022-10-11T05:43:22.464Z,101158.63
2022-10-11T05:46:24.838Z,101144.72
2022-10-11T05:49:27.264Z,101167.19
2022-10-11T05:52:30.760Z,101164.72
2022-10-11T05:55:40.444Z,101167.09
2022-10-11T05:58:42.841Z,101153.66
2022-10-11T06:01:45.281Z,101175.91
2022-10-11T06:04:47.853Z,101171.53
2022-10-11T06:07:50.220Z,101168.19
2022-10-11T06:10:52.550Z,101163.97
2022-10-11T06:13:56.031Z,101187.22
2022-10-11T06:16:58.366Z,101181.84
2022-10-11T06:20:00.739Z,101185.19
2022-10-11T06:23:03.181Z,101188.31
2022-10-11T06:26:08.183Z,101199.75
2022-10-11T06:29:11.476Z,101194.63
2022-10-11T06:32:13.893Z,101181.53
2022-10-11T06:35:16.411Z,101183.78
2022-10-11T06:38:19.202Z,101189.94
2022-10-11T06:41:28.544Z,101190.59
2022-10-11T06:44:35.506Z,101195.75
2022-10-11T06:47:38.634Z,101187.91
2022-10-11T06:50:59.136Z,101200.72
2022-10-11T06:54:02.632Z,101193.84
2022-10-11T06:57:05.044Z,101187.59
2022-10-11T07:00:12.461Z,101201.97
2022-10-11T07:03:15.208Z,101193.91
2022-10-11T07:06:22.181Z,101197.47
2022-10-11T07:09:24.645Z,101197.38
2022-10-11T07:12:27.107Z,101205.00
2022-10-11T07:15:29.565Z,101188.84
2022-10-11T07:18:32.657Z,101218.75
2022-10-11T07:21:35.658Z,101213.13
2022-10-11T07:24:37.997Z,101211.47
2022-10-11T07:27:40.641Z,101224.41
2022-10-11T07:30:44.090Z,101222.91
2022-10-11T07:33:46.491Z,101211.50
2022-10-11T07:36:49.038Z,101235.28
2022-10-11T07:39:51.469Z,101230.84
2022-10-11T07:42:53.836Z,101220.53
2022-10-11T07:45:57.071Z,101222.06
2022-10-11T07:48:59.509Z,101228.06
2022-10-11T07:52:01.918Z,101215.34
2022-10-11T07:55:04.704Z,101221.88
2022-10-11T07:58:11.408Z,101210.44
2022-10-11T08:01:14.674Z,101212.16
2022-10-11T08:04:17.307Z,101222.59
2022-10-11T08:07:19.744Z,101215.78
2022-10-11T08:10:22.875Z,101227.38
2022-10-11T08:13:25.699Z,101194.44
2022-10-11T08:16:28.292Z,101212.00
2022-10-11T08:19:30.692Z,101225.22
2022-10-11T08:22:35.228Z,101238.53
2022-10-11T08:25:42.493Z,101238.53
2022-10-11T08:28:45.052Z,101232.41
2022-10-11T08:31:47.486Z,101239.31
2022-10-11T08:35:22.866Z,101250.00
2022-10-11T08:38:25.798Z,101238.44
2022-10-11T08:41:51.275Z,101241.22
2022-10-11T08:45:10.669Z,101216.47
2022-10-11T08:48:16.610Z,101232.25
2022-10-11T08:51:30.710Z,101213.94
2022-10-11T08:54:56.361Z,101223.00
2022-10-11T08:57:59.192Z,101215.16
2022-10-11T09:01:03.048Z,101219.72
2022-10-11T09:04:06.161Z,101218.00
2022-10-11T09:07:39.832Z,101225.16
2022-10-11T09:10:50.384Z,101228.94
2022-10-11T09:13:58.758Z,101248.88
2022-10-11T09:17:11.852Z,101232.09
2022-10-11T09:20:35.592Z,101250.84
2022-10-11T09:24:02.036Z,101242.53
2022-10-11T09:27:38.104Z,101231.09
2022-10-11T09:30:49.198Z,101231.75
2022-10-11T09:33:52.218Z,101241.78
2022-10-11T09:37:04.716Z,101248.91
2022-10-11T09:40:19.203Z,101247.00
2022-10-11T09:43:21.901Z,101233.06
2022-10-11T09:46:34.642Z,101243.56
2022-10-11T09:53:06.564Z,101241.50
2022-10-11T09:56:09.684Z,101233.28
2022-10-11T09:59:29.451Z,101221.63
2022-10-11T10:02:49.325Z,101230.16
2022-10-11T10:06:06.883Z,101230.63
2022-10-11T10:09:30.270Z,101228.41
2022-10-11T10:12:32.650Z,101231.75
2022-10-11T10:15:36.557Z,101224.75
2022-10-11T10:18:43.055Z,101233.66
2022-10-11T10:21:47.625Z,101239.53
2022-10-11T10:24:50.997Z,101237.97
2022-10-11T10:27:58.605Z,101238.38
2022-10-11T10:31:00.976Z,101223.41
2022-10-11T10:34:16.069Z,101208.56
2022-10-11T10:37:25.551Z,101233.31
2022-10-11T10:40:40.610Z,101205.53
2022-10-11T10:43:45.032Z,101211.75
2022-10-11T10:46:56.385Z,101226.66
2022-10-11T10:50:31.784Z,101214.16
2022-10-11T10:54:02.824Z,101224.69
2022-10-11T10:57:34.664Z,101219.41
2022-10-11T11:00:42.424Z,101218.13
2022-10-11T11:03:54.019Z,101228.06
2022-10-11T11:07:08.459Z,101223.63
2022-10-11T11:10:19.659Z,101196.97
2022-10-11T11:13:37.122Z,101221.97
2022-10-11T11:16:47.295Z,101221.25
2022-10-11T11:19:55.726Z,101218.69
2022-10-11T11:23:03.804Z,101217.84
2022-10-11T11:26:25.870Z,101213.31
2022-10-11T11:30:01.736Z,101218.00
2022-10-11T11:33:31.111Z,101220.78
2022-10-11T11:36:39.181Z,101211.78
2022-10-11T11:39:49.152Z,101191.06
2022-10-11T11:42:57.192Z,101194.59
2022-10-11T11:46:06.567Z,101210.41
2022-10-11T11:49:21.556Z,101201.44
2022-10-11T11:52:33.879Z,101193.94
2022-10-11T11:55:49.270Z,101200.38
2022-10-11T11:58:59.545Z,101204.69
2022-10-11T12:02:23.469Z,101190.78
2022-10-11T12:05:29.481Z,101202.84
2022-10-11T12:08:33.642Z,101183.84
2022-10-11T12:11:43.199Z,101196.78
2022-10-11T12:14:45.568Z,101199.19
2022-10-11T12:17:57.176Z,101202.00
2022-10-11T12:21:34.580Z,101193.91
2022-10-11T12:24:58.973Z,101191.91
2022-10-11T12:28:23.117Z,101193.06
2022-10-11T12:31:31.480Z,101179.41
2022-10-11T12:37:44.602Z,101197.72
2022-10-11T12:40:48.725Z,101186.41
2022-10-11T12:43:51.979Z,101192.81
2022-10-11T12:46:54.312Z,101191.97
2022-10-11T12:50:25.852Z,101184.84
2022-10-11T12:54:14.693Z,101190.94
2022-10-11T12:57:55.201Z,101185.88
2022-10-11T13:00:57.957Z,101193.69
2022-10-11T13:04:04.434Z,101193.97
2022-10-11T13:07:13.745Z,101167.38
2022-10-11T13:10:23.128Z,101191.13
2022-10-11T13:13:41.878Z,101194.94
2022-10-11T13:16:49.340Z,101183.88
2022-10-11T13:20:22.621Z,101182.16
2022-10-11T13:23:29.158Z,101187.66
2022-10-11T13:26:31.930Z,101171.28
2022-10-11T13:29:39.907Z,101175.34
2022-10-11T13:32:42.575Z,101175.25
2022-10-11T13:35:44.969Z,101184.56
2022-10-11T13:38:54.079Z,101164.31
2022-10-11T13:41:57.600Z,101177.72
2022-10-11T13:45:00.413Z,101173.13
2022-10-11T13:48:03.174Z,101166.78
2022-10-11T13:51:29.074Z,101185.56
2022-10-11T13:54:54.459Z,101181.78
2022-10-11T13:57:58.443Z,101168.72
2022-10-11T14:01:04.154Z,101182.84
2022-10-11T14:04:09.457Z,101186.34
2022-10-11T14:07:26.798Z,101188.50
2022-10-11T14:10:29.525Z,101181.03
2022-10-11T14:13:31.879Z,101185.63
2022-10-11T14:16:34.288Z,101167.25
2022-10-11T14:19:36.800Z,101180.81
2022-10-11T14:22:39.167Z,101176.56
2022-10-11T14:25:41.585Z,101167.81
2022-10-11T14:28:43.981Z,101178.88
2022-10-11T14:31:46.641Z,101179.06
2022-10-11T14:34:49.703Z,101168.25
2022-10-11T14:37:52.970Z,101190.75
2022-10-11T14:40:55.294Z,101183.47
2022-10-11T14:43:57.893Z,101183.88
2022-10-11T14:47:01.298Z,101175.53
2022-10-11T14:50:22.375Z,101161.16
2022-10-11T14:53:25.076Z,101179.66
2022-10-11T14:56:27.591Z,101186.56
2022-10-11T14:59:36.513Z,101188.88
2022-10-11T15:02:38.951Z,101199.06
2022-10-11T15:05:41.310Z,101164.81
2022-10-11T15:08:44.109Z,101191.81
2022-10-11T15:11:48.008Z,101187.38
2022-10-11T15:14:50.463Z,101186.41
2022-10-11T15:17:55.238Z,101184.88
2022-10-11T15:20:58.190Z,101197.31
2022-10-11T15:24:01.027Z,101193.44
2022-10-11T15:27:03.603Z,101198.94
2022-10-11T15:30:38.489Z,101203.38
2022-10-11T15:33:43.829Z,101207.03
2022-10-11T15:36:46.250Z,101205.56
2022-10-11T15:39:49.323Z,101202.59
2022-10-11T15:42:53.699Z,101201.97
2022-10-11T15:45:57.454Z,101193.28
2022-10-11T15:49:04.497Z,101194.25
2022-10-11T15:52:09.017Z,101217.09
2022-10-11T15:55:11.421Z,101209.44
2022-10-11T15:58:15.750Z,101208.47
2022-10-11T16:01:19.873Z,101209.81
2022-10-11T16:04:22.289Z,101208.47
2022-10-11T16:07:24.645Z,101183.91
2022-10-11T16:10:27.207Z,101208.56
2022-10-11T16:13:29.653Z,101207.09
2022-10-11T16:16:32.152Z,101220.69
2022-10-11T16:19:34.505Z,101220.00
2022-10-11T16:22:36.858Z,101218.84
2022-10-11T16:25:40.079Z,101229.50
2022-10-11T16:28:42.672Z,101218.00
2022-10-11T16:31:45.202Z,101221.78
2022-10-11T16:34:47.629Z,101240.13
2022-10-11T16:37:50.252Z,101233.19
2022-10-11T16:40:52.798Z,101243.38
2022-10-11T16:43:55.726Z,101221.03
2022-10-11T16:46:58.583Z,101241.19
2022-10-11T16:50:01.058Z,101254.91
2022-10-11T16:53:03.484Z,101243.03
2022-10-11T16:56:07.500Z,101241.75
2022-10-11T16:59:11.400Z,101263.03
2022-10-11T17:02:19.215Z,101246.47
2022-10-11T17:05:21.681Z,101248.25
2022-10-11T17:08:24.028Z,101249.91
2022-10-11T17:11:26.448Z,101253.41
2022-10-11T17:14:29.469Z,101241.91
2022-10-11T17:17:31.865Z,101259.88
2022-10-11T17:20:34.354Z,101249.47
2022-10-11T17:23:37.102Z,101254.91
2022-10-11T17:26:39.474Z,101258.34
2022-10-11T17:29:41.950Z,101243.72
2022-10-11T17:32:44.303Z,101267.19
2022-10-11T17:35:46.798Z,101247.63
2022-10-11T17:38:50.526Z,101275.91
2022-10-11T17:41:53.385Z,101280.59
2022-10-11T17:44:55.845Z,101273.41
2022-10-11T17:48:00.537Z,101257.63
2022-10-11T17:51:10.745Z,101263.81
2022-10-11T17:54:13.381Z,101262.38
2022-10-11T17:57:16.020Z,101286.19
2022-10-11T18:00:19.404Z,101273.16
2022-10-11T18:03:21.840Z,101263.38
2022-10-11T18:06:26.372Z,101251.56
2022-10-11T18:09:29.245Z,101279.28
2022-10-11T18:12:31.669Z,101265.97
2022-10-11T18:15:34.054Z,101280.44
2022-10-11T18:18:36.560Z,101289.22
2022-10-11T18:21:39.319Z,101284.22
2022-10-11T18:24:41.649Z,101285.00
2022-10-11T18:27:44.046Z,101298.31
2022-10-11T18:30:47.497Z,101287.78
2022-10-11T18:33:51.077Z,101294.84
2022-10-11T18:36:53.472Z,101282.97
2022-10-11T18:39:56.095Z,101278.78
2022-10-11T18:42:58.493Z,101289.44
2022-10-11T18:46:11.884Z,101283.06
2022-10-11T18:49:14.666Z,101291.16
2022-10-11T18:52:17.203Z,101280.16
2022-10-11T18:55:19.935Z,101274.53
2022-10-11T18:58:22.278Z,101277.91
2022-10-11T19:01:25.649Z,101293.56
2022-10-11T19:04:28.545Z,101285.25
2022-10-11T19:07:30.903Z,101283.09
2022-10-11T19:10:34.236Z,101288.19
2022-10-11T19:13:36.892Z,101293.09
2022-10-11T19:16:45.307Z,101272.47
2022-10-11T19:19:48.684Z,101281.50
2022-10-11T19:22:51.133Z,101283.59
2022-10-11T19:25:57.063Z,101297.81
2022-10-11T19:29:00.464Z,101293.09
2022-10-11T19:32:03.594Z,101292.19
2022-10-11T19:35:06.662Z,101294.84
2022-10-11T19:38:09.116Z,101293.47
2022-10-11T19:41:12.981Z,101272.06
2022-10-11T19:44:15.929Z,101273.75
2022-10-11T19:47:18.477Z,101298.94
2022-10-11T19:50:20.934Z,101289.09
2022-10-11T19:53:23.303Z,101304.88
2022-10-11T19:56:27.611Z,101308.97
2022-10-11T19:59:30.131Z,101301.75
2022-10-11T20:02:33.438Z,101294.88
2022-10-11T20:05:37.731Z,101293.75
2022-10-11T20:08:40.464Z,101306.16
2022-10-11T20:11:42.956Z,101287.19
2022-10-11T20:14:45.316Z,101310.69
2022-10-11T20:17:48.214Z,101304.44
2022-10-11T20:20:54.950Z,101315.22
2022-10-11T20:24:01.981Z,101289.72
2022-10-11T20:27:05.457Z,101300.19
2022-10-11T20:30:08.260Z,101297.72
2022-10-11T20:33:10.764Z,101306.47
2022-10-11T20:36:19.606Z,101313.66
2022-10-11T20:39:22.057Z,101313.66
2022-10-11T20:42:28.869Z,101308.50
2022-10-11T20:45:32.165Z,101316.94
2022-10-11T20:48:35.595Z,101303.28
2022-10-11T20:51:39.752Z,101306.94
2022-10-11T20:54:42.074Z,101301.88
2022-10-11T20:57:44.458Z,101315.69
2022-10-11T21:00:47.797Z,101313.81
2022-10-11T21:03:50.456Z,101314.59
2022-10-11T21:06:52.779Z,101306.28
2022-10-11T21:09:55.211Z,101300.47
2022-10-11T21:12:58.179Z,101304.88
2022-10-11T21:16:06.614Z,101306.88
2022-10-11T21:19:12.777Z,101295.44
2022-10-11T21:22:15.147Z,101299.81
2022-10-11T21:25:17.553Z,101280.38
2022-10-11T21:28:19.949Z,101313.84
2022-10-11T21:31:23.217Z,101306.50
2022-10-11T21:34:25.637Z,101292.25
2022-10-11T21:37:28.037Z,101307.00
2022-10-11T21:40:30.427Z,101284.91
2022-10-11T21:43:34.086Z,101307.41
2022-10-11T21:47:01.728Z,101299.41
2022-10-11T21:49:58.851Z,101294.84
2022-10-11T21:53:01.353Z,101297.03
2022-10-11T21:56:03.925Z,101295.50
2022-10-11T21:59:11.245Z,101287.03
2022-10-11T22:02:14.918Z,101296.06
2022-10-11T22:05:17.281Z,101298.00
2022-10-11T22:08:19.718Z,101308.38
2022-10-11T22:11:22.077Z,101287.66
2022-10-11T22:14:24.499Z,101309.31
2022-10-11T22:17:26.888Z,101289.25
2022-10-11T22:20:32.356Z,101309.06
2022-10-11T22:23:34.854Z,101285.19
2022-10-11T22:26:37.224Z,101303.44
2022-10-11T22:29:39.593Z,101307.03
2022-10-11T22:32:41.992Z,101293.91
2022-10-11T22:35:44.312Z,101281.66
2022-10-11T22:38:47.149Z,101291.56
2022-10-11T22:41:49.506Z,101303.38
2022-10-11T22:44:51.883Z,101290.06
2022-10-11T22:47:54.268Z,101289.13
2022-10-11T22:50:56.721Z,101304.34
2022-10-11T22:53:59.114Z,101290.75
2022-10-11T22:57:01.503Z,101299.66
2022-10-11T23:00:05.025Z,101302.78
2022-10-11T23:03:07.495Z,101306.38
2022-10-11T23:06:09.946Z,101309.94
2022-10-11T23:09:12.341Z,101299.16
2022-10-11T23:12:14.793Z,101301.53
2022-10-11T23:15:17.356Z,101310.50
2022-10-11T23:18:19.952Z,101289.34
2022-10-11T23:21:22.374Z,101305.63
2022-10-11T23:24:24.754Z,101314.84
2022-10-11T23:27:29.119Z,101321.28
2022-10-11T23:30:31.746Z,101310.00
2022-10-11T23:33:34.492Z,101303.22
2022-10-11T23:36:37.191Z,101322.31
2022-10-11T23:39:39.855Z,101303.81
2022-10-11T23:42:42.218Z,101302.59
2022-10-11T23:45:45.127Z,101307.63
2022-10-11T23:48:47.588Z,101321.53
2022-10-11T23:51:50.025Z,101299.38
2022-10-11T23:54:52.464Z,101305.31
2022-10-11T23:57:54.838Z,101320.47
